Terminal Aerodrome Forecast
Issued by NWS

Home | Current Version | Previous Version | Text Only | Print | Product List | Glossary On
Versions: 1 2 3 4 5 6 7 8 9 10 11 12 13
000
FTUS42 KFFC 201700
TAFPDK
TAF
KPDK 201729Z 2018/2118 22006KT P6SM FEW040 FEW250
     FM210000 00000KT P6SM SCT100
     FM211400 31004KT P6SM FEW100
     FM211700 31008KT P6SM FEW250=

USA.gov is the U.S. government's official web portal to all federal, state and local government web resources and services.